createdAt,value
2018-07-13T00:02:36.623Z,11.90
2018-07-13T00:06:09.977Z,11.90
2018-07-13T00:12:09.155Z,11.90
2018-07-13T00:15:59.749Z,11.80
2018-07-13T00:18:45.233Z,11.70
2018-07-13T00:21:47.664Z,11.60
2018-07-13T00:24:33.919Z,11.40
2018-07-13T00:27:50.945Z,11.40
2018-07-13T00:30:32.021Z,11.40
2018-07-13T00:33:47.348Z,11.40
2018-07-13T00:36:36.238Z,11.30
2018-07-13T00:39:37.800Z,11.20
2018-07-13T00:42:05.799Z,11.30
2018-07-13T00:45:38.411Z,11.20
2018-07-13T00:48:06.244Z,11.20
2018-07-13T00:50:46.684Z,11.30
2018-07-13T00:53:45.975Z,11.20
2018-07-13T00:56:21.806Z,11.30
2018-07-13T00:59:20.967Z,11.30
2018-07-13T01:01:48.783Z,11.30
2018-07-13T01:04:25.550Z,11.40
2018-07-13T01:07:06.999Z,11.40
2018-07-13T01:09:58.030Z,11.40
2018-07-13T01:12:40.817Z,11.40
2018-07-13T01:15:29.110Z,11.30
2018-07-13T01:18:30.666Z,11.20
2018-07-13T01:21:15.715Z,11.10
2018-07-13T01:23:54.679Z,11.10
2018-07-13T01:29:36.884Z,11.00
2018-07-13T01:32:15.415Z,11.00
2018-07-13T01:38:05.847Z,10.80
2018-07-13T01:40:42.017Z,10.70
2018-07-13T01:43:27.331Z,10.60
2018-07-13T01:45:58.968Z,10.60
2018-07-13T01:48:28.722Z,10.50
2018-07-13T01:51:04.277Z,10.40
2018-07-13T01:53:32.418Z,10.40
2018-07-13T01:56:03.515Z,10.40
2018-07-13T01:58:37.939Z,10.40
2018-07-13T02:01:05.962Z,10.50
2018-07-13T02:03:34.414Z,10.50
2018-07-13T02:06:02.410Z,10.50
2018-07-13T02:08:30.047Z,10.60
2018-07-13T02:10:58.016Z,10.50
2018-07-13T02:13:26.818Z,10.40
2018-07-13T02:15:55.896Z,10.40
2018-07-13T02:18:29.580Z,10.40
2018-07-13T02:20:57.356Z,10.40
2018-07-13T02:23:26.034Z,10.40
2018-07-13T02:25:53.920Z,10.40
2018-07-13T02:28:21.575Z,10.40
2018-07-13T02:30:49.072Z,10.60
2018-07-13T02:33:16.721Z,10.60
2018-07-13T02:35:55.123Z,10.50
2018-07-13T02:38:23.294Z,10.40
2018-07-13T02:40:57.782Z,10.30
2018-07-13T02:43:26.391Z,10.20
2018-07-13T02:45:53.847Z,10.20
2018-07-13T02:48:21.293Z,10.00
2018-07-13T02:50:48.726Z,9.80
2018-07-13T02:53:16.146Z,9.70
2018-07-13T02:55:43.573Z,9.90
2018-07-13T02:58:11.120Z,10.00
2018-07-13T03:00:38.574Z,10.00
2018-07-13T03:03:06.103Z,10.10
2018-07-13T03:05:33.533Z,10.20
2018-07-13T03:08:00.951Z,10.40
2018-07-13T03:10:28.518Z,10.40
2018-07-13T03:12:56.162Z,10.40
2018-07-13T03:15:25.728Z,10.40
2018-07-13T03:18:24.444Z,10.40
2018-07-13T03:20:55.130Z,10.50
2018-07-13T03:23:34.975Z,10.60
2018-07-13T03:29:28.135Z,10.90
2018-07-13T03:32:19.953Z,11.20
2018-07-13T03:52:35.022Z,12.80
2018-07-13T03:55:12.951Z,13.00
2018-07-13T03:57:43.583Z,13.30
2018-07-13T04:06:00.283Z,13.70
2018-07-13T04:27:33.105Z,17.60
2018-07-13T04:36:18.429Z,18.00
2018-07-13T11:44:14.149Z,28.00
2018-07-13T13:16:10.163Z,25.20
2018-07-13T13:26:55.989Z,24.60
2018-07-13T13:48:44.167Z,24.60
2018-07-13T14:41:52.259Z,26.00
2018-07-13T15:33:41.906Z,26.00
2018-07-13T16:25:46.812Z,25.30
2018-07-13T16:28:17.191Z,25.40
2018-07-13T16:30:48.626Z,24.70
2018-07-13T17:18:15.398Z,24.40
2018-07-13T18:31:50.533Z,26.50
2018-07-13T19:45:07.672Z,20.30
2018-07-13T20:03:23.647Z,19.20
2018-07-13T21:23:14.574Z,16.00
2018-07-13T21:30:22.593Z,15.80
2018-07-13T21:41:43.089Z,15.80
2018-07-13T22:03:47.564Z,15.80
2018-07-13T22:18:56.989Z,15.60
2018-07-13T22:23:22.174Z,15.70
2018-07-13T22:31:00.346Z,16.80
2018-07-13T22:48:30.598Z,17.20
2018-07-13T22:55:53.473Z,17.20
2018-07-13T23:19:12.939Z,16.80
2018-07-13T23:44:46.037Z,15.40
